createdAt,value
2022-12-13T00:01:25.361Z,76.20
2022-12-13T00:03:57.212Z,73.07
2022-12-13T00:06:24.679Z,74.03
2022-12-13T00:08:52.377Z,62.93
2022-12-13T00:11:19.673Z,59.87
2022-12-13T00:13:49.940Z,59.57
2022-12-13T00:16:24.579Z,52.27
2022-12-13T00:18:55.604Z,61.43
2022-12-13T00:21:25.310Z,53.40
2022-12-13T00:23:52.531Z,62.13
2022-12-13T00:26:22.339Z,67.57
2022-12-13T00:28:51.376Z,59.00
2022-12-13T00:34:07.156Z,63.03
2022-12-13T00:36:34.227Z,64.93
2022-12-13T00:39:01.565Z,55.50
2022-12-13T00:41:34.706Z,62.13
2022-12-13T00:44:02.932Z,56.20
2022-12-13T00:46:30.608Z,51.97
2022-12-13T00:49:00.289Z,56.80
2022-12-13T00:51:30.551Z,53.50
2022-12-13T00:53:58.862Z,47.07
2022-12-13T00:56:28.284Z,54.03
2022-12-13T00:58:56.880Z,54.10
2022-12-13T01:01:29.702Z,48.13
2022-12-13T01:03:59.523Z,53.53
2022-12-13T01:06:34.455Z,56.07
2022-12-13T01:09:02.272Z,59.40
2022-12-13T01:11:29.381Z,56.80
2022-12-13T01:13:56.443Z,52.43
2022-12-13T01:16:23.543Z,51.87
2022-12-13T01:18:50.668Z,57.93
2022-12-13T01:21:20.498Z,59.07
2022-12-13T01:23:49.732Z,52.40
2022-12-13T01:26:18.993Z,54.03
2022-12-13T01:28:46.621Z,56.13
2022-12-13T01:31:16.564Z,53.93
2022-12-13T01:33:43.641Z,51.43
2022-12-13T01:36:16.208Z,54.73
2022-12-13T01:38:43.324Z,53.27
2022-12-13T01:41:17.368Z,55.43
2022-12-13T01:43:48.135Z,55.13
2022-12-13T01:46:18.009Z,49.87
2022-12-13T01:48:53.992Z,52.97
2022-12-13T01:51:27.650Z,52.40
2022-12-13T01:53:57.184Z,45.00
2022-12-13T01:56:31.508Z,48.40
2022-12-13T01:59:00.637Z,46.77
2022-12-13T02:01:29.076Z,43.67
2022-12-13T02:03:56.321Z,50.57
2022-12-13T02:06:37.529Z,51.97
2022-12-13T02:09:07.076Z,50.87
2022-12-13T02:11:36.998Z,49.23
2022-12-13T02:14:05.540Z,44.20
2022-12-13T02:16:44.814Z,55.57
2022-12-13T02:19:42.986Z,51.43
2022-12-13T02:22:21.912Z,48.77
2022-12-13T02:25:09.184Z,47.57
2022-12-13T02:28:01.393Z,46.00
2022-12-13T02:30:38.909Z,63.57
2022-12-13T02:33:09.102Z,51.70
2022-12-13T02:36:00.446Z,49.87
2022-12-13T02:38:31.706Z,47.40
2022-12-13T02:41:29.512Z,51.50
2022-12-13T02:44:01.358Z,49.70
2022-12-13T02:46:32.126Z,45.67
2022-12-13T02:49:00.183Z,48.83
2022-12-13T02:51:29.045Z,53.53
2022-12-13T02:53:56.144Z,48.33
2022-12-13T02:56:23.203Z,47.93
2022-12-13T02:58:53.685Z,48.10
2022-12-13T03:01:45.763Z,49.23
2022-12-13T03:04:34.754Z,45.37
2022-12-13T03:07:28.029Z,49.20
2022-12-13T03:10:05.835Z,45.80
2022-12-13T03:13:01.972Z,45.53
2022-12-13T03:15:45.349Z,47.40
2022-12-13T03:18:20.630Z,49.73
2022-12-13T03:21:14.799Z,56.60
2022-12-13T03:23:41.842Z,43.77
2022-12-13T03:26:12.587Z,43.70
2022-12-13T03:28:40.131Z,44.70
2022-12-13T03:31:08.049Z,48.63
2022-12-13T03:33:35.554Z,46.73
2022-12-13T03:36:03.222Z,50.00
2022-12-13T03:38:30.921Z,44.40
2022-12-13T03:41:05.870Z,53.53
2022-12-13T03:43:32.978Z,44.03
2022-12-13T03:46:01.319Z,43.17
2022-12-13T03:48:28.535Z,40.97
2022-12-13T03:50:56.491Z,44.40
2022-12-13T03:53:33.652Z,41.57
2022-12-13T03:56:04.583Z,41.77
2022-12-13T03:58:37.028Z,43.73
2022-12-13T04:01:06.945Z,40.43
2022-12-13T04:03:34.240Z,44.13
2022-12-13T04:06:01.258Z,41.10
2022-12-13T04:08:28.321Z,38.07
2022-12-13T04:10:55.356Z,44.10
2022-12-13T04:13:34.233Z,40.37
2022-12-13T04:16:02.726Z,43.53
2022-12-13T04:18:30.055Z,40.47
2022-12-13T04:20:57.729Z,41.60
2022-12-13T04:23:24.937Z,43.97
2022-12-13T04:25:52.323Z,43.90
2022-12-13T04:28:22.754Z,39.23
2022-12-13T04:30:54.288Z,40.93
2022-12-13T04:33:22.541Z,38.37
2022-12-13T04:35:50.402Z,40.00
2022-12-13T04:38:18.166Z,42.40
2022-12-13T04:40:45.365Z,40.43
2022-12-13T04:43:12.379Z,40.63
2022-12-13T04:45:39.421Z,39.90
2022-12-13T04:48:06.825Z,41.50
2022-12-13T04:50:34.254Z,40.33
2022-12-13T04:53:01.428Z,39.17
2022-12-13T04:55:28.584Z,42.73
2022-12-13T04:57:55.653Z,45.20
2022-12-13T05:00:23.320Z,40.20
2022-12-13T05:02:50.690Z,43.50
2022-12-13T05:05:18.493Z,38.60
2022-12-13T05:07:45.902Z,43.90
2022-12-13T05:10:32.133Z,43.83
2022-12-13T05:13:00.644Z,42.37
2022-12-13T05:15:27.905Z,44.63
2022-12-13T05:17:54.973Z,43.97
2022-12-13T05:20:22.352Z,44.90
2022-12-13T05:22:49.411Z,42.87
2022-12-13T05:25:16.817Z,47.80
2022-12-13T05:27:44.190Z,40.70
2022-12-13T05:30:11.911Z,49.47
2022-12-13T05:32:43.733Z,40.47
2022-12-13T05:35:23.265Z,45.17
2022-12-13T05:37:55.277Z,49.97
2022-12-13T05:40:27.751Z,44.07
2022-12-13T05:43:01.458Z,44.50
2022-12-13T05:45:30.279Z,46.70
2022-12-13T05:47:57.660Z,42.27
2022-12-13T05:50:25.107Z,43.83
2022-12-13T05:52:52.574Z,46.40
2022-12-13T05:55:20.093Z,43.50
2022-12-13T05:57:50.076Z,37.63
2022-12-13T06:00:28.722Z,41.07
2022-12-13T06:03:01.268Z,39.37
2022-12-13T06:05:30.479Z,37.37
2022-12-13T06:07:58.264Z,37.70
2022-12-13T06:10:34.626Z,37.23
2022-12-13T06:13:21.219Z,33.47
2022-12-13T06:15:51.202Z,38.10
2022-12-13T06:18:18.479Z,39.03
2022-12-13T06:20:47.313Z,44.53
2022-12-13T06:23:14.650Z,38.50
2022-12-13T06:25:41.758Z,36.60
2022-12-13T06:28:08.894Z,37.77
2022-12-13T06:30:37.188Z,36.40
2022-12-13T06:33:11.052Z,36.03
2022-12-13T06:35:41.547Z,36.57
2022-12-13T06:38:11.733Z,39.83
2022-12-13T06:40:39.433Z,40.50
2022-12-13T06:43:06.559Z,33.87
2022-12-13T06:45:33.606Z,36.47
2022-12-13T06:48:01.821Z,39.00
2022-12-13T06:50:28.805Z,34.67
2022-12-13T06:52:55.823Z,36.23
2022-12-13T06:55:23.812Z,38.57
2022-12-13T06:57:51.987Z,42.87
2022-12-13T07:00:22.602Z,38.10
2022-12-13T07:02:56.060Z,32.93
2022-12-13T07:05:23.739Z,37.07
2022-12-13T07:07:50.813Z,34.30
2022-12-13T07:10:21.900Z,38.97
2022-12-13T07:12:50.169Z,34.30
2022-12-13T07:15:17.260Z,42.40
2022-12-13T07:17:44.503Z,39.93
2022-12-13T07:20:13.687Z,37.30
2022-12-13T07:22:47.222Z,38.57
2022-12-13T07:25:28.172Z,38.57
2022-12-13T07:28:01.366Z,38.93
2022-12-13T07:30:31.505Z,37.90
2022-12-13T07:32:58.524Z,36.20
2022-12-13T07:35:25.545Z,38.90
2022-12-13T07:37:52.566Z,38.17
2022-12-13T07:40:19.805Z,32.87
2022-12-13T07:42:54.529Z,39.37
2022-12-13T07:45:23.118Z,39.07
2022-12-13T07:47:50.137Z,39.93
2022-12-13T07:50:24.628Z,34.00
2022-12-13T07:52:53.641Z,36.80
2022-12-13T07:55:22.893Z,31.83
2022-12-13T07:58:12.259Z,42.93
2022-12-13T08:00:41.008Z,32.73
2022-12-13T08:03:25.559Z,34.53
2022-12-13T08:06:03.712Z,33.93
2022-12-13T08:08:31.905Z,32.63
2022-12-13T08:11:10.489Z,32.40
2022-12-13T08:13:38.784Z,36.40
2022-12-13T08:16:27.635Z,33.27
2022-12-13T08:19:01.105Z,29.47
2022-12-13T08:24:21.596Z,32.33
2022-12-13T08:26:48.668Z,29.13
2022-12-13T08:29:22.932Z,28.83
2022-12-13T08:32:03.174Z,28.13
2022-12-13T08:34:30.280Z,27.00
2022-12-13T08:37:01.974Z,29.67
2022-12-13T08:39:36.570Z,32.03
2022-12-13T08:42:14.945Z,30.80
2022-12-13T08:44:52.706Z,29.33
2022-12-13T08:47:26.596Z,33.27
2022-12-13T08:50:01.884Z,36.20
2022-12-13T08:52:40.193Z,31.77
2022-12-13T08:55:13.728Z,33.30
2022-12-13T08:57:41.812Z,30.97
2022-12-13T09:00:15.572Z,29.40
2022-12-13T09:02:42.865Z,28.80
2022-12-13T09:05:12.763Z,28.83
2022-12-13T09:07:41.283Z,32.20
2022-12-13T09:10:25.496Z,25.03
2022-12-13T09:13:01.717Z,27.77
2022-12-13T09:15:34.382Z,28.00
2022-12-13T09:18:04.728Z,24.10
2022-12-13T09:20:40.894Z,27.50
2022-12-13T09:23:13.488Z,28.10
2022-12-13T09:25:41.501Z,27.60
2022-12-13T09:28:09.555Z,26.60
2022-12-13T09:30:38.528Z,26.07
2022-12-13T09:33:18.329Z,26.73
2022-12-13T09:35:53.458Z,26.13
2022-12-13T09:38:20.967Z,29.30
2022-12-13T09:40:50.294Z,22.20
2022-12-13T09:43:32.144Z,24.47
2022-12-13T09:46:05.301Z,24.07
2022-12-13T09:48:42.289Z,22.70
2022-12-13T09:51:17.112Z,22.20
2022-12-13T09:53:50.350Z,22.93
2022-12-13T09:56:20.018Z,21.53
2022-12-13T09:58:52.773Z,22.93
2022-12-13T10:01:22.315Z,19.30
2022-12-13T10:03:53.267Z,18.77
2022-12-13T10:06:28.719Z,24.00
2022-12-13T10:09:00.260Z,20.33
2022-12-13T10:11:31.986Z,21.57
2022-12-13T10:14:10.005Z,16.60
2022-12-13T10:16:37.415Z,16.50
2022-12-13T10:19:32.143Z,17.63
2022-12-13T10:22:02.977Z,12.93
2022-12-13T10:24:52.833Z,10.43
2022-12-13T10:27:33.928Z,10.93
2022-12-13T10:30:13.469Z,7.40
2022-12-13T10:32:58.049Z,9.03
2022-12-13T10:35:30.346Z,9.70
2022-12-13T10:38:00.886Z,6.47
2022-12-13T10:40:43.907Z,9.40
2022-12-13T10:43:21.251Z,6.20
2022-12-13T10:45:59.397Z,6.70
2022-12-13T10:48:49.192Z,8.63
2022-12-13T10:51:21.619Z,8.30
2022-12-13T10:53:56.356Z,7.37
2022-12-13T10:56:34.038Z,12.47
2022-12-13T10:59:22.862Z,14.97
2022-12-13T11:01:50.106Z,17.43
2022-12-13T11:04:32.801Z,17.80
2022-12-13T11:07:23.344Z,17.63
2022-12-13T11:09:52.809Z,20.10
2022-12-13T11:12:25.847Z,17.83
2022-12-13T11:14:58.752Z,19.50
2022-12-13T11:17:28.303Z,20.43
2022-12-13T11:19:58.353Z,18.60
2022-12-13T11:22:45.708Z,21.47
2022-12-13T11:25:43.007Z,18.87
2022-12-13T11:28:47.359Z,19.70
2022-12-13T11:31:52.174Z,21.43
2022-12-13T11:34:39.023Z,20.10
2022-12-13T11:37:17.752Z,18.20
2022-12-13T11:40:01.525Z,20.60
2022-12-13T11:42:50.788Z,21.53
2022-12-13T11:45:31.939Z,17.80
2022-12-13T11:48:20.052Z,19.80
2022-12-13T11:50:50.666Z,21.00
2022-12-13T11:53:39.871Z,24.23
2022-12-13T11:56:27.649Z,21.87
2022-12-13T11:59:03.963Z,18.80
2022-12-13T12:01:43.914Z,19.20
2022-12-13T12:04:23.992Z,18.87
2022-12-13T12:07:17.770Z,17.03
2022-12-13T12:09:58.633Z,19.73
2022-12-13T12:12:39.808Z,24.40
2022-12-13T12:15:30.009Z,18.43
2022-12-13T12:17:57.716Z,18.87
2022-12-13T12:20:40.635Z,17.73
2022-12-13T12:23:46.316Z,17.30
2022-12-13T12:26:20.781Z,19.50
2022-12-13T12:29:01.397Z,16.57
2022-12-13T12:31:54.354Z,18.07
2022-12-13T12:34:58.784Z,18.83
2022-12-13T12:37:49.327Z,21.73
2022-12-13T12:41:14.393Z,18.13
2022-12-13T12:43:30.073Z,16.77
2022-12-13T12:45:57.798Z,20.87
2022-12-13T12:49:03.146Z,19.13
2022-12-13T12:51:56.134Z,19.57
2022-12-13T12:54:32.155Z,22.37
2022-12-13T12:57:26.345Z,19.13
2022-12-13T13:00:16.689Z,19.37
2022-12-13T13:02:55.451Z,22.00
2022-12-13T13:05:40.075Z,16.27
2022-12-13T13:08:53.440Z,18.77
2022-12-13T13:11:26.055Z,18.70
2022-12-13T13:14:01.514Z,18.27
2022-12-13T13:16:41.939Z,18.83
2022-12-13T13:19:11.728Z,28.43
2022-12-13T13:21:55.767Z,16.93
2022-12-13T13:24:33.219Z,19.87
2022-12-13T13:27:32.862Z,17.23
2022-12-13T13:30:08.047Z,18.33
2022-12-13T13:32:40.855Z,20.17
2022-12-13T13:35:33.235Z,16.63
2022-12-13T13:38:05.498Z,19.77
2022-12-13T13:40:34.357Z,20.53
2022-12-13T13:43:32.867Z,18.40
2022-12-13T13:46:10.918Z,18.10
2022-12-13T13:48:49.635Z,21.43
2022-12-13T13:52:08.679Z,18.40
2022-12-13T13:54:49.780Z,18.13
2022-12-13T13:58:08.972Z,21.87
2022-12-13T14:01:06.494Z,21.57
2022-12-13T14:03:48.752Z,22.13
2022-12-13T14:06:46.823Z,20.50
2022-12-13T14:09:49.354Z,23.40
2022-12-13T14:12:22.383Z,18.93
2022-12-13T14:15:14.186Z,23.47
2022-12-13T14:18:02.955Z,21.70
2022-12-13T14:20:46.136Z,19.67
2022-12-13T14:23:47.460Z,21.60
2022-12-13T14:26:38.465Z,20.30
2022-12-13T14:29:14.533Z,17.70
2022-12-13T14:31:43.009Z,18.47
2022-12-13T14:34:28.560Z,21.67
2022-12-13T14:37:18.712Z,23.80
2022-12-13T14:39:45.783Z,25.00
2022-12-13T14:42:26.591Z,23.03
2022-12-13T14:44:53.824Z,21.37
2022-12-13T14:47:22.103Z,29.73
2022-12-13T14:49:54.530Z,19.87
2022-12-13T14:52:27.870Z,24.70
2022-12-13T14:55:06.175Z,21.60
2022-12-13T14:57:34.914Z,24.83
2022-12-13T15:00:22.834Z,21.47
2022-12-13T15:02:52.362Z,20.87
2022-12-13T15:05:32.503Z,21.20
2022-12-13T15:07:59.852Z,23.43
2022-12-13T15:10:48.491Z,19.80
2022-12-13T15:13:44.817Z,19.23
2022-12-13T15:16:30.254Z,22.13
2022-12-13T15:19:10.907Z,22.47
2022-12-13T15:21:38.536Z,22.63
2022-12-13T15:24:15.080Z,25.70
2022-12-13T15:26:45.326Z,21.07
2022-12-13T15:29:17.711Z,19.17
2022-12-13T15:31:48.936Z,21.80
2022-12-13T15:34:29.747Z,22.17
2022-12-13T15:37:06.831Z,25.13
2022-12-13T15:39:39.801Z,24.93
2022-12-13T15:42:22.414Z,22.00
2022-12-13T15:44:56.080Z,26.53
2022-12-13T15:47:27.908Z,26.40
2022-12-13T15:50:08.592Z,24.10
2022-12-13T15:52:40.317Z,28.97
2022-12-13T15:55:07.827Z,21.90
2022-12-13T15:57:48.250Z,20.47
2022-12-13T16:00:18.485Z,21.97
2022-12-13T16:02:57.992Z,21.90
2022-12-13T16:05:39.293Z,22.17
2022-12-13T16:08:28.005Z,22.23
2022-12-13T16:10:56.034Z,25.80
2022-12-13T16:13:29.062Z,21.13
2022-12-13T16:16:00.396Z,25.30
2022-12-13T16:18:51.025Z,27.77
2022-12-13T16:21:18.125Z,25.07
2022-12-13T16:23:48.131Z,21.10
2022-12-13T16:26:25.701Z,28.33
2022-12-13T16:28:54.120Z,26.77
2022-12-13T16:31:22.892Z,21.00
2022-12-13T16:33:50.328Z,25.47
2022-12-13T16:36:17.880Z,24.33
2022-12-13T16:38:45.021Z,28.43
2022-12-13T16:41:12.348Z,25.30
2022-12-13T16:43:54.265Z,24.20
2022-12-13T16:47:13.038Z,24.83
2022-12-13T16:49:24.973Z,24.63
2022-12-13T16:51:52.767Z,23.27
2022-12-13T16:54:20.856Z,23.23
2022-12-13T16:56:50.032Z,24.53
2022-12-13T16:59:19.578Z,27.27
2022-12-13T17:01:47.136Z,26.83
2022-12-13T17:04:20.528Z,29.57
2022-12-13T17:06:50.357Z,26.30
2022-12-13T17:09:18.372Z,25.90
2022-12-13T17:11:45.830Z,26.87
2022-12-13T17:14:12.928Z,27.53
2022-12-13T17:16:40.064Z,24.90
2022-12-13T17:19:07.148Z,27.57
2022-12-13T17:21:34.708Z,24.97
2022-12-13T17:24:03.096Z,29.43
2022-12-13T17:26:30.329Z,23.80
2022-12-13T17:28:57.343Z,27.40
2022-12-13T17:31:28.023Z,25.97
2022-12-13T17:33:59.135Z,27.10
2022-12-13T17:36:31.491Z,23.97
2022-12-13T17:38:58.876Z,28.13
2022-12-13T17:41:26.362Z,22.83
2022-12-13T17:43:53.427Z,28.90
2022-12-13T17:46:20.570Z,20.80
2022-12-13T17:48:48.954Z,24.43
2022-12-13T17:51:16.088Z,23.07
2022-12-13T17:53:44.663Z,29.37
2022-12-13T17:56:15.836Z,25.17
2022-12-13T17:58:43.798Z,22.43
2022-12-13T18:01:20.518Z,25.10
2022-12-13T18:03:49.023Z,24.57
2022-12-13T18:06:16.474Z,25.57
2022-12-13T18:08:44.612Z,26.20
2022-12-13T18:14:01.200Z,28.63
2022-12-13T18:16:35.925Z,24.03
2022-12-13T18:19:06.691Z,25.90
2022-12-13T18:21:35.515Z,26.73
2022-12-13T18:24:02.623Z,24.50
2022-12-13T18:26:29.683Z,30.50
2022-12-13T18:28:56.835Z,24.03
2022-12-13T18:31:25.306Z,25.23
2022-12-13T18:33:54.064Z,22.83
2022-12-13T18:36:24.222Z,24.10
2022-12-13T18:38:51.677Z,26.67
2022-12-13T18:41:24.879Z,26.23
2022-12-13T18:43:59.427Z,26.53
2022-12-13T18:46:28.760Z,24.27
2022-12-13T18:48:56.993Z,24.43
2022-12-13T18:51:24.937Z,26.97
2022-12-13T18:53:52.876Z,24.13
2022-12-13T18:56:19.869Z,21.97
2022-12-13T18:58:48.483Z,25.60
2022-12-13T19:01:16.779Z,22.83
2022-12-13T19:03:46.017Z,22.33
2022-12-13T19:06:17.313Z,22.80
2022-12-13T19:08:48.505Z,25.83
2022-12-13T19:11:15.672Z,24.90
2022-12-13T19:13:42.734Z,22.93
2022-12-13T19:16:12.900Z,24.07
2022-12-13T19:18:40.912Z,23.17
2022-12-13T19:21:10.116Z,27.20
2022-12-13T19:23:37.257Z,26.37
2022-12-13T19:26:09.450Z,26.33
2022-12-13T19:28:36.655Z,24.23
2022-12-13T19:31:05.575Z,25.33
2022-12-13T19:33:33.545Z,24.40
2022-12-13T19:36:00.994Z,24.53
2022-12-13T19:38:28.376Z,24.37
2022-12-13T19:40:55.423Z,23.60
2022-12-13T19:43:22.611Z,28.43
2022-12-13T19:45:49.863Z,28.03
2022-12-13T19:48:17.305Z,26.73
2022-12-13T19:50:47.482Z,24.50
2022-12-13T19:53:14.603Z,27.17
2022-12-13T19:55:45.486Z,27.73
2022-12-13T19:58:15.742Z,26.70
2022-12-13T20:00:42.891Z,28.07
2022-12-13T20:03:10.011Z,25.20
2022-12-13T20:05:38.290Z,26.93
2022-12-13T20:08:05.974Z,23.57
2022-12-13T20:10:38.106Z,27.63
2022-12-13T20:13:05.782Z,25.17
2022-12-13T20:15:32.784Z,29.27
2022-12-13T20:17:59.932Z,29.17
2022-12-13T20:20:47.024Z,30.40
2022-12-13T20:23:15.625Z,31.27
2022-12-13T20:25:42.658Z,25.97
2022-12-13T20:28:15.892Z,30.03
2022-12-13T20:30:43.160Z,25.47
2022-12-13T20:33:10.200Z,28.10
2022-12-13T20:35:54.279Z,26.93
2022-12-13T20:38:25.105Z,29.93
2022-12-13T20:40:52.221Z,32.67
2022-12-13T20:43:19.230Z,25.93
2022-12-13T20:45:46.239Z,27.93
2022-12-13T20:48:13.264Z,29.43
2022-12-13T20:50:40.312Z,30.97
2022-12-13T20:53:07.375Z,30.27
2022-12-13T20:55:38.239Z,29.13
2022-12-13T20:58:05.322Z,26.63
2022-12-13T21:00:32.690Z,30.17
2022-12-13T21:03:01.995Z,28.50
2022-12-13T21:05:29.096Z,29.77
2022-12-13T21:08:14.578Z,27.33
2022-12-13T21:10:41.570Z,33.43
2022-12-13T21:13:09.173Z,31.53
2022-12-13T21:15:37.990Z,31.00
2022-12-13T21:18:05.112Z,35.10
2022-12-13T21:20:32.190Z,34.27
2022-12-13T21:22:59.414Z,28.63
2022-12-13T21:25:26.431Z,32.30
2022-12-13T21:27:54.571Z,31.37
2022-12-13T21:30:22.985Z,34.80
2022-12-13T21:32:52.905Z,30.27
2022-12-13T21:35:20.062Z,29.27
2022-12-13T21:37:48.294Z,29.33
2022-12-13T21:40:15.870Z,29.67
2022-12-13T21:42:45.436Z,30.67
2022-12-13T21:45:12.960Z,29.47
2022-12-13T21:47:40.016Z,33.67
2022-12-13T21:50:07.312Z,29.53
2022-12-13T21:52:34.356Z,34.33
2022-12-13T21:55:22.220Z,33.27
2022-12-13T21:58:08.101Z,33.87
2022-12-13T22:00:37.570Z,33.93
2022-12-13T22:03:05.083Z,30.27
2022-12-13T22:05:32.075Z,31.03
2022-12-13T22:07:59.114Z,30.03
2022-12-13T22:10:26.094Z,32.97
2022-12-13T22:12:53.766Z,34.13
2022-12-13T22:15:20.748Z,33.53
2022-12-13T22:17:47.822Z,31.40
2022-12-13T22:20:15.533Z,34.33
2022-12-13T22:22:44.255Z,35.13
2022-12-13T22:25:11.911Z,33.60
2022-12-13T22:27:38.934Z,31.70
2022-12-13T22:30:06.595Z,34.67
2022-12-13T22:32:34.073Z,35.60
2022-12-13T22:35:01.224Z,35.30
2022-12-13T22:37:28.235Z,35.50
2022-12-13T22:39:55.238Z,34.97
2022-12-13T22:42:22.526Z,36.20
2022-12-13T22:44:49.577Z,41.57
2022-12-13T22:47:16.656Z,39.30
2022-12-13T22:49:43.757Z,37.67
2022-12-13T22:52:10.914Z,38.33
2022-12-13T22:54:38.074Z,36.13
2022-12-13T22:57:06.915Z,40.40
2022-12-13T22:59:34.000Z,37.43
2022-12-13T23:02:02.950Z,36.17
2022-12-13T23:04:32.954Z,36.97
2022-12-13T23:07:00.369Z,40.50
2022-12-13T23:09:27.500Z,37.73
2022-12-13T23:12:13.163Z,38.07
2022-12-13T23:14:40.621Z,38.80
2022-12-13T23:17:07.748Z,38.03
2022-12-13T23:19:50.865Z,37.57
2022-12-13T23:22:22.672Z,38.00
2022-12-13T23:24:51.125Z,39.20
2022-12-13T23:27:19.674Z,41.60
2022-12-13T23:29:46.719Z,40.30
2022-12-13T23:32:14.199Z,41.23
2022-12-13T23:34:41.453Z,35.97
2022-12-13T23:37:08.449Z,41.93
2022-12-13T23:39:35.533Z,36.67
2022-12-13T23:42:02.527Z,36.63
2022-12-13T23:44:29.561Z,39.23
2022-12-13T23:46:56.563Z,40.00
2022-12-13T23:49:23.620Z,38.00
2022-12-13T23:51:50.674Z,38.93
2022-12-13T23:54:19.625Z,40.50
2022-12-13T23:56:47.584Z,41.87
2022-12-13T23:59:14.830Z,38.57
